Detalii statie COMAGRA BEREGSAU [00001994]

Toti senzorii

Date Temperatura solului [C]Precipitatii [mm]Voltaj baterie [mV]Leaf Wetness [Min]HC Air temperature [C]HC Relative humidity [%]Punctul de roua [C]
medieminmaxsumaultimatimpmedieminmaxmediemediemin
2017-10-20 09:00:00 11.1 11 11.3 0 6786 7.33 5.8 9.14 100 7.3 5.8
2017-10-20 10:00:00 11 10.9 11.1 0 6864 11.1 9.39 13.33 98.81 10.8 9.3
2017-10-20 11:00:00 11 10.9 11.1 0 6942 15.56 13.85 16.9 73.85 10.7 10.5
2017-10-20 12:00:00 11.1 11 11.2 0 7020 18.86 17.3 20.06 58.73 10.3 9.9
2017-10-20 13:00:00 11.4 11.3 11.6 0 7196 22.67 20.77 23.92 42.85 9.1 8.5
2017-10-20 14:00:00 12 11.7 12.5 0 7186 24.38 23.56 25.1 37.17 8.5 8
2017-10-20 15:00:00 12.8 12.5 13.3 0 7186 24.92 24.3 25.29 35.69 8.4 8
2017-10-20 16:00:00 13.6 13.2 13.9 0 7186 25.1 24.56 25.49 34.54 8.1 7.6
2017-10-20 17:00:00 14.1 13.9 14.3 0 7050 23.44 22.07 25.04 38.3 8.1 7.7
2017-10-20 18:00:00 14.3 14.2 14.4 0 6874 18.92 17.31 21.32 49.18 7.7 7.5
2017-10-20 19:00:00 14.2 14 14.3 0 6844 15.73 14.4 17.67 58.31 7.3 7
2017-10-20 20:00:00 13.9 13.8 14.2 0 6834 12.79 12.24 13.9 68.07 6.8 6
2017-10-20 21:00:00 13.7 13.6 13.9 0 6826 11.89 11.31 13.09 71.41 6.7 6
2017-10-20 22:00:00 13.4 13.2 13.6 0 6816 10.92 10.45 11.31 71.41 5.8 5.7
2017-10-20 23:00:00 13.1 12.9 13.3 0 6816 9.97 9.63 10.32 77.05 6 5.9
2017-10-21 00:00:00 12.9 12.7 13.1 0 6806 8.89 8.57 9.44 84.63 6.3 5.9
2017-10-21 01:00:00 12.6 12.5 12.8 0 6786 8.51 8.19 8.88 89.51 6.7 6.4
2017-10-21 02:00:00 12.4 12.2 12.5 0 6776 7.65 6.87 8.36 91.59 6.2 5.4
2017-10-21 03:00:00 12.2 11.9 12.4 0 6776 7.8 6.71 8.9 93.83 6.7 5.5
2017-10-21 04:00:00 11.9 11.9 12.1 0 6756 7.13 6.59 7.71 97.4 6.6 6.4
2017-10-21 05:00:00 11.7 11.5 12 0 6738 6.52 6.3 6.63 99.63 6.3 6
2017-10-21 06:00:00 11.5 11.5 11.7 0 6718 5.76 5.2 6.16 99.76 5.6 5.2
2017-10-21 07:00:00 11.3 11.2 11.5 0 6708 5.08 4.94 5.31 100 5 4.9
2017-10-21 08:00:00 11.2 11 11.3 0 6738 5.56 5.08 7.34 100 5.5 5
2017-10-21 09:00:00 11 10.9 11.1 0 6864 9.16 7.79 10.83 91.99 7.8 7.5
2017-10-21 10:00:00 10.9 10.9 11 0 7070 13.3 11.35 14.92 77.07 9.2 8.5
2017-10-21 11:00:00 11.1 10.9 11.2 0 7108 15.91 14.99 17.1 69.19 10.1 9.7
2017-10-21 12:00:00 11.3 11.2 11.6 0 7176 17.84 17.02 18.59 62.37 10.4 10.2
2017-10-21 13:00:00 11.8 11.6 12.1 0 7196 19.57 18.4 20.4 56.22 10.4 10.1
2017-10-21 14:00:00 12.3 12 12.7 0 7186 20.43 19.96 20.99 51.07 9.7 9
2017-10-21 15:00:00 12.8 12.6 13.2 0 7196 21.02 20.63 21.82 47.56 9.2 9
2017-10-21 16:00:00 13.3 13.1 13.6 0 7166 21.24 20.82 21.61 46.75 9.1 8.8
2017-10-21 17:00:00 13.6 13.4 13.8 0 7176 20.04 19.36 20.87 51.18 9.4 9.2
2017-10-21 18:00:00 13.8 13.7 13.9 0 6864 18.28 17.29 19.28 56.75 9.3 8.7
2017-10-21 19:00:00 13.8 13.7 14 0 6854 16.06 15.23 16.91 61.25 8.4 7.7
2017-10-21 20:00:00 13.7 13.6 14 0 6834 14.55 14.05 15.02 64.93 7.9 7.5
2017-10-21 21:00:00 13.5 13.4 13.7 0 6834 13.73 13.45 14.18 70.35 8.2 8
2017-10-21 22:00:00 13.3 13.2 13.5 0 6826 12.65 12.11 13.34 74.09 8 7.6
2017-10-21 23:00:00 13.2 13.1 13.4 0 6816 11.68 11.03 12.17 78.79 7.9 7.6
2017-10-22 00:00:00 13 12.9 13.2 0 6816 10.49 9.62 11.28 86.46 8.2 7.9
2017-10-22 01:00:00 12.8 12.7 13 0 6806 10.34 9.67 10.88 88.55 8.3 7.8
2017-10-22 02:00:00 12.7 12.6 12.9 0 6786 10.8 10.34 11.14 86.76 8.5 7.5
2017-10-22 03:00:00 12.6 12.5 12.8 0 6776 11.32 11.04 11.48 87.56 9.2 9
2017-10-22 04:00:00 12.5 12.3 12.7 0 6776 11.6 11.46 11.77 86.45 9.2 9.1
2017-10-22 05:00:00 12.4 12.3 12.6 0 6766 11.81 11.75 11.92 86.61 9.5 9.3
2017-10-22 06:00:00 12.4 12.3 12.6 0 6756 11.85 11.39 11.99 87.67 9.7 9.4
2017-10-22 07:00:00 12.4 12.3 12.6 0 6738 11.09 10.87 11.38 91.75 9.6 9.2
2017-10-22 08:00:00 12.4 12.1 12.5 0 6756 9.83 9.17 10.81 93.09 8.6 7.7